Time;durP1;ratioP1;P1;durP2;ratioP2;P2;SDS_P1;SDS_P2;PMS_P1;PMS_P2;Temp;Humidity;BMP_temperature;BMP_pressure;BME280_temperature;BME280_humidity;BME280_pressure;Samples;Min_cycle;Max_cycle;Signal;HPM_P1;HPM_P2
2023/01/24 00:00:01;;;;;;;29.60;13.43;;;;;;;1.97;93.84;103773.50;5020345;28;20503;-62
2023/01/24 00:02:26;;;;;;;30.65;13.95;;;;;;;1.98;93.50;103770.19;5031475;28;20075;-62
2023/01/24 00:04:51;;;;;;;29.33;13.02;;;;;;;1.99;94.10;103777.16;5025309;28;20124;-61
2023/01/24 00:07:17;;;;;;;33.08;14.10;;;;;;;1.99;94.33;103774.59;5028451;28;20033;-62
2023/01/24 00:09:42;;;;;;;31.48;13.23;;;;;;;1.99;94.13;103769.44;5030902;28;20515;-61
2023/01/24 00:12:07;;;;;;;31.83;13.48;;;;;;;1.98;93.71;103772.75;5031660;28;20105;-62
2023/01/24 00:14:33;;;;;;;28.00;12.60;;;;;;;1.98;93.94;103767.59;5031559;28;20014;-61
2023/01/24 00:16:58;;;;;;;28.80;12.52;;;;;;;1.97;93.80;103770.91;5029511;28;20492;-62
2023/01/24 00:19:23;;;;;;;28.90;13.25;;;;;;;1.98;93.66;103778.78;5031512;28;20082;-62
2023/01/24 00:21:48;;;;;;;29.45;13.77;;;;;;;1.97;94.13;103779.56;5031346;28;20416;-61
2023/01/24 00:24:14;;;;;;;30.80;13.30;;;;;;;1.96;94.14;103769.13;5029682;28;20029;-61
2023/01/24 00:26:39;;;;;;;28.02;13.20;;;;;;;1.96;94.08;103766.56;5030642;28;20036;-61
2023/01/24 00:29:04;;;;;;;29.40;13.07;;;;;;;1.96;94.17;103767.44;5028785;28;20056;-61
2023/01/24 00:31:30;;;;;;;29.80;13.93;;;;;;;1.95;94.01;103768.19;5029260;28;20105;-61
2023/01/24 00:33:55;;;;;;;28.13;13.15;;;;;;;1.94;94.23;103760.31;5028701;28;20017;-62
2023/01/24 00:36:21;;;;;;;29.85;12.95;;;;;;;1.95;93.15;103754.44;5027733;28;20108;-65
2023/01/24 00:38:46;;;;;;;30.63;13.50;;;;;;;1.92;93.39;103749.88;5025243;28;20101;-66
2023/01/24 00:41:11;;;;;;;32.03;13.38;;;;;;;1.94;93.84;103757.75;5021480;28;20057;-66
2023/01/24 00:43:36;;;;;;;31.67;13.63;;;;;;;1.94;93.92;103747.47;5030231;28;20033;-66
2023/01/24 00:46:06;;;;;;;30.58;13.30;;;;;;;1.92;93.88;103743.06;5029614;28;20541;-66
2023/01/24 00:48:31;;;;;;;29.20;13.18;;;;;;;1.92;94.02;103740.47;5021915;28;20042;-66
2023/01/24 00:50:56;;;;;;;34.58;14.02;;;;;;;1.92;93.24;103744.72;5030299;28;20026;-66
2023/01/24 00:53:22;;;;;;;35.28;14.77;;;;;;;1.91;93.97;103741.25;5028957;28;20022;-66
2023/01/24 00:55:48;;;;;;;32.40;14.30;;;;;;;1.90;93.62;103747.13;5029034;28;20030;-66
2023/01/24 00:58:14;;;;;;;30.50;14.23;;;;;;;1.90;93.07;103746.25;5028035;28;20072;-66
2023/01/24 01:00:40;;;;;;;31.10;13.30;;;;;;;1.89;93.62;103749.56;5028067;28;20041;-66
2023/01/24 01:03:07;;;;;;;29.13;13.00;;;;;;;1.87;92.35;103736.53;5020776;28;20021;-65
2023/01/24 01:05:32;;;;;;;30.30;13.27;;;;;;;1.88;93.71;103743.50;5029724;28;20049;-66
2023/01/24 01:07:57;;;;;;;32.08;14.13;;;;;;;1.88;92.90;103734.84;5023623;28;20026;-66
2023/01/24 01:10:23;;;;;;;28.02;12.85;;;;;;;1.87;93.31;103739.09;5029791;28;20479;-66
2023/01/24 01:12:48;;;;;;;28.83;12.13;;;;;;;1.86;92.88;103744.09;5030589;28;20064;-66
2023/01/24 01:15:13;;;;;;;26.85;11.77;;;;;;;1.85;92.71;103732.88;5030300;28;20083;-66
2023/01/24 01:17:39;;;;;;;26.08;12.05;;;;;;;1.87;93.79;103733.06;5026646;28;20025;-66
2023/01/24 01:20:05;;;;;;;29.30;13.02;;;;;;;1.86;92.82;103732.13;5027146;28;20060;-66
2023/01/24 01:22:30;;;;;;;28.02;12.65;;;;;;;1.86;92.85;103731.22;5030261;28;20129;-66
2023/01/24 01:24:55;;;;;;;23.75;11.35;;;;;;;1.86;93.42;103732.13;5029598;28;20373;-66
2023/01/24 01:27:20;;;;;;;27.30;11.63;;;;;;;1.85;93.18;103732.88;5029832;28;20104;-66
2023/01/24 01:29:46;;;;;;;26.55;11.60;;;;;;;1.86;93.69;103729.56;5029487;28;20037;-66
2023/01/24 01:32:11;;;;;;;28.75;12.30;;;;;;;1.86;93.47;103734.69;5029073;28;20026;-66
2023/01/24 01:34:36;;;;;;;26.67;12.27;;;;;;;1.87;93.14;103740.78;5022145;28;20037;-66
2023/01/24 01:37:02;;;;;;;27.13;12.38;;;;;;;1.87;93.76;103740.78;5027059;28;20460;-66
2023/01/24 01:39:27;;;;;;;30.33;13.55;;;;;;;1.87;94.00;103736.53;5029392;28;20053;-66
2023/01/24 01:41:52;;;;;;;27.35;12.32;;;;;;;1.86;93.52;103744.09;5027676;28;20021;-66
2023/01/24 01:44:40;;;;;;;30.83;13.15;;;;;;;1.86;92.78;103734.69;5027561;28;20030;-66
2023/01/24 01:47:36;;;;;;;30.20;12.63;;;;;;;1.86;92.87;103746.66;5025090;28;20087;-66
2023/01/24 01:50:12;;;;;;;27.13;12.70;;;;;;;1.85;92.32;103743.16;5025357;28;20029;-66
2023/01/24 01:52:41;;;;;;;28.95;13.43;;;;;;;1.85;92.85;103734.53;5028888;28;20033;-66
2023/01/24 01:55:15;;;;;;;30.48;13.27;;;;;;;1.84;93.12;103735.28;5028552;28;20094;-66
2023/01/24 01:57:42;;;;;;;25.30;11.73;;;;;;;1.85;92.98;103742.25;5026574;28;20037;-66
2023/01/24 02:00:12;;;;;;;28.92;13.32;;;;;;;1.84;93.38;103743.00;5019789;28;20492;-66
2023/01/24 02:02:41;;;;;;;30.27;13.07;;;;;;;1.83;92.69;103729.25;5028642;28;20025;-66
2023/01/24 02:05:09;;;;;;;;;;;;;;;1.87;93.79;103733.97;5021326;28;20119;-66
2023/01/24 02:07:50;;;;;;;33.17;13.40;;;;;;;1.83;93.06;103729.25;5027822;28;20316;-66
2023/01/24 02:10:18;;;;;;;30.05;12.80;;;;;;;1.82;93.51;103732.56;5029866;28;20022;-66
2023/01/24 02:12:46;;;;;;;30.05;13.95;;;;;;;1.81;93.02;103735.91;5027681;28;20033;-66
2023/01/24 02:18:01;;;;;;;28.98;12.85;;;;;;;1.81;93.89;103727.25;5029972;28;20111;-66
2023/01/24 02:20:35;;;;;;;29.25;13.80;;;;;;;1.80;93.69;103734.06;5029732;28;20171;-66
2023/01/24 02:23:23;;;;;;;30.75;13.60;;;;;;;1.81;93.38;103725.63;5028102;28;20029;-66
2023/01/24 02:26:12;;;;;;;29.25;13.25;;;;;;;1.82;93.97;103724.84;5023661;28;20460;-66
2023/01/24 02:28:40;;;;;;;29.63;13.23;;;;;;;1.82;93.92;103729.97;5030002;28;20033;-66
2023/01/24 02:31:05;;;;;;;28.73;13.50;;;;;;;1.83;93.90;103728.34;5027675;28;20772;-66
2023/01/24 02:33:32;;;;;;;33.58;15.15;;;;;;;1.81;94.29;103734.97;5026570;28;20026;-66
2023/01/24 02:36:32;;;;;;;30.05;13.70;;;;;;;1.81;94.42;103723.03;5028008;28;20029;-66
2023/01/24 02:39:02;;;;;;;30.88;14.38;;;;;;;1.80;93.89;103728.03;5025600;28;20041;-66
2023/01/24 02:41:41;;;;;;;34.85;15.07;;;;;;;1.79;93.52;103731.34;5027309;28;20083;-66
2023/01/24 02:44:12;;;;;;;34.17;15.48;;;;;;;1.77;93.41;103722.53;5022915;28;20044;-66
2023/01/24 02:46:38;;;;;;;34.45;15.10;;;;;;;1.75;93.67;103737.78;5026653;28;20036;-66
2023/01/24 02:49:08;;;;;;;32.22;14.68;;;;;;;1.73;93.24;103731.59;5027429;28;20029;-66
2023/01/24 02:54:17;;;;;;;32.38;14.65;;;;;;;1.72;93.89;103732.31;5030388;28;19933;-66
2023/01/24 02:59:26;;;;;;;34.63;15.20;;;;;;;1.70;93.99;103729.59;5029957;28;20090;-66
2023/01/24 03:01:51;;;;;;;36.85;15.38;;;;;;;1.71;93.99;103730.53;5031587;28;20482;-66
2023/01/24 03:04:17;;;;;;;30.38;14.48;;;;;;;1.68;93.45;103728.53;5029663;28;20122;-66
2023/01/24 03:06:43;;;;;;;32.70;14.98;;;;;;;1.68;94.31;103725.03;5030463;28;20021;-66
2023/01/24 03:09:19;;;;;;;31.58;14.75;;;;;;;1.68;94.50;103728.53;5022510;28;20025;-66
2023/01/24 03:11:46;;;;;;;30.90;14.40;;;;;;;1.66;94.20;103724.88;5032803;28;20029;-66
2023/01/24 03:36:06;;;;;;;34.83;16.13;;;;;;;1.66;95.41;103724.88;5032544;28;20406;-66
2023/01/24 03:41:15;;;;;;;36.05;17.42;;;;;;;1.67;95.42;103716.44;5028042;28;20155;-66
2023/01/24 03:43:40;;;;;;;35.22;16.42;;;;;;;1.67;94.53;103715.53;5029458;28;20511;-66
2023/01/24 03:46:06;;;;;;;32.20;15.95;;;;;;;1.67;94.79;103715.53;5031162;28;20034;-66
2023/01/24 03:48:37;;;;;;;36.53;16.85;;;;;;;1.66;94.90;103718.84;5030650;28;20021;-66
2023/01/24 03:53:47;;;;;;;32.80;14.65;;;;;;;1.61;94.53;103709.72;5027637;28;20088;-66
2023/01/24 03:56:13;;;;;;;33.55;15.48;;;;;;;1.60;94.65;103713.94;5027491;28;21481;-66
2023/01/24 03:58:38;;;;;;;30.17;14.35;;;;;;;1.58;94.35;103723.16;5027318;28;20502;-66
2023/01/24 04:01:04;;;;;;;36.10;15.95;;;;;;;1.56;94.98;103720.44;5031067;28;20471;-66
2023/01/24 04:03:32;;;;;;;34.17;15.50;;;;;;;1.56;95.00;103719.50;5030972;28;20037;-66
2023/01/24 04:05:57;;;;;;;31.20;14.30;;;;;;;1.53;94.66;103714.94;5027196;28;20411;-66
2023/01/24 04:08:23;;;;;;;33.67;14.80;;;;;;;1.53;94.65;103727.78;5030143;28;20029;-66
2023/01/24 04:10:48;;;;;;;31.60;14.57;;;;;;;1.52;94.53;103717.34;5030091;28;20068;-66
2023/01/24 04:13:13;;;;;;;30.23;13.77;;;;;;;1.50;95.04;103714.63;5029232;28;20033;-66
2023/01/24 04:15:39;;;;;;;34.22;15.35;;;;;;;1.49;95.01;103720.53;5028681;28;20584;-66
2023/01/24 04:18:05;;;;;;;32.53;15.10;;;;;;;1.50;94.54;103721.44;5030076;28;20079;-66
2023/01/24 04:20:36;;;;;;;33.28;15.55;;;;;;;1.51;95.45;103720.69;5029535;28;20033;-66
2023/01/24 04:23:03;;;;;;;32.00;14.98;;;;;;;1.51;95.91;103713.88;5030036;28;20027;-66
2023/01/24 04:25:28;;;;;;;31.23;14.68;;;;;;;1.51;95.47;103724.16;5025401;28;20034;-66
2023/01/24 04:27:55;;;;;;;32.20;14.98;;;;;;;1.52;95.45;103730.19;5029704;28;20021;-66
2023/01/24 04:30:20;;;;;;;33.38;14.85;;;;;;;1.50;95.50;103722.31;5029683;28;20057;-66
2023/01/24 04:32:45;;;;;;;35.20;14.95;;;;;;;1.48;94.85;103716.13;5030851;28;20483;-66
2023/01/24 04:35:20;;;;;;;31.75;14.63;;;;;;;1.49;94.55;103720.53;5030483;28;20022;-66
2023/01/24 04:37:45;;;;;;;32.33;15.18;;;;;;;1.48;94.96;103717.78;5029502;28;20038;-66
2023/01/24 04:40:12;;;;;;;31.35;15.02;;;;;;;1.47;94.84;103722.00;5026640;28;20029;-66
2023/01/24 04:42:38;;;;;;;31.13;14.48;;;;;;;1.45;94.44;103718.38;5026341;28;20032;-66
2023/01/24 04:45:04;;;;;;;31.98;15.02;;;;;;;1.45;95.13;103726.06;5029307;28;20030;-66
2023/01/24 04:47:29;;;;;;;31.20;14.43;;;;;;;1.45;95.41;103726.06;5029842;28;20037;-66
2023/01/24 04:49:55;;;;;;;32.20;14.38;;;;;;;1.46;95.49;103725.31;5027841;28;20033;-66
2023/01/24 04:52:20;;;;;;;33.85;15.50;;;;;;;1.46;95.63;103726.97;5026969;28;20042;-66
2023/01/24 04:54:45;;;;;;;32.88;14.98;;;;;;;1.45;95.52;103731.22;5029872;28;20430;-66
2023/01/24 04:57:11;;;;;;;33.03;15.05;;;;;;;1.44;95.32;103729.38;5030105;28;20040;-66
2023/01/24 04:59:37;;;;;;;30.77;14.07;;;;;;;1.45;94.84;103728.66;5028489;28;20033;-66
2023/01/24 05:02:03;;;;;;;30.67;14.50;;;;;;;1.44;95.56;103731.97;5028197;28;20025;-65
2023/01/24 05:04:28;;;;;;;30.70;13.88;;;;;;;1.44;95.38;103729.38;5019850;28;20095;-66
2023/01/24 05:06:53;;;;;;;31.58;14.20;;;;;;;1.43;95.23;103729.22;5030360;28;20025;-66
2023/01/24 05:09:19;;;;;;;31.88;14.50;;;;;;;1.41;95.68;103726.50;5029249;28;20026;-66
2023/01/24 05:11:44;;;;;;;30.00;14.38;;;;;;;1.43;95.79;103727.56;5030235;28;20285;-66
2023/01/24 05:14:10;;;;;;;33.88;15.00;;;;;;;1.43;95.38;103731.78;5029601;28;20013;-66
2023/01/24 05:16:36;;;;;;;33.40;15.25;;;;;;;1.43;95.33;103732.69;5029499;28;20025;-66
2023/01/24 05:19:01;;;;;;;31.60;14.35;;;;;;;1.43;95.64;103734.38;5026709;28;20060;-66
2023/01/24 05:21:26;;;;;;;32.10;14.40;;;;;;;1.43;95.26;103737.84;5028970;28;20112;-66
2023/01/24 05:23:53;;;;;;;30.17;13.98;;;;;;;1.43;95.89;103737.84;5029757;28;20034;-66
2023/01/24 05:26:21;;;;;;;31.75;14.32;;;;;;;1.41;95.28;103735.88;5027769;28;20458;-66
2023/01/24 05:28:46;;;;;;;31.85;14.52;;;;;;;1.40;94.97;103740.06;5028708;28;20485;-66
2023/01/24 05:31:12;;;;;;;31.40;14.60;;;;;;;1.37;95.38;103734.63;5028382;28;20021;-66
2023/01/24 05:33:37;;;;;;;27.45;12.75;;;;;;;1.36;94.80;103736.28;5027949;28;20086;-66
2023/01/24 05:36:11;;;;;;;30.50;13.82;;;;;;;1.37;95.42;103744.88;5016554;28;20037;-66
2023/01/24 05:38:37;;;;;;;30.77;14.05;;;;;;;1.38;96.06;103741.59;5028211;28;20033;-66
2023/01/24 05:41:05;;;;;;;29.02;14.07;;;;;;;1.37;96.30;103740.66;5027356;28;20442;-66
2023/01/24 05:43:31;;;;;;;30.70;13.65;;;;;;;1.40;95.94;103747.78;5028715;28;20048;-65
2023/01/24 05:46:04;;;;;;;30.83;13.98;;;;;;;1.39;95.15;103749.44;5027011;28;20618;-66
2023/01/24 05:48:30;;;;;;;32.55;14.05;;;;;;;1.38;95.14;103746.72;5018669;28;20491;-66
2023/01/24 05:50:57;;;;;;;29.70;13.43;;;;;;;1.36;95.29;103751.69;5029554;28;20061;-66
2023/01/24 05:53:23;;;;;;;28.92;13.68;;;;;;;1.36;95.75;103754.25;5030044;28;20108;-66
2023/01/24 05:55:57;;;;;;;29.75;14.00;;;;;;;1.34;95.53;103752.25;5028925;28;20021;-66
2023/01/24 05:58:23;;;;;;;29.67;14.10;;;;;;;1.34;95.51;103762.53;5028331;28;20508;-66
2023/01/24 06:00:49;;;;;;;30.60;13.90;;;;;;;1.33;95.49;103763.28;5028496;28;20033;-66
2023/01/24 06:03:14;;;;;;;29.20;13.25;;;;;;;1.31;95.27;103763.13;5027594;28;20029;-66
2023/01/24 06:05:44;;;;;;;30.30;12.70;;;;;;;1.34;95.89;103770.25;5027360;28;20073;-66
2023/01/24 06:08:09;;;;;;;;;;;;;;;1.40;95.51;103776.03;5029806;28;20033;-66
2023/01/24 06:10:34;;;;;;;28.90;13.25;;;;;;;1.36;95.73;103768.75;5030021;28;19915;-66
2023/01/24 06:12:59;;;;;;;30.35;13.48;;;;;;;1.36;96.12;103767.09;5029069;28;20035;-66
2023/01/24 06:15:25;;;;;;;28.05;13.10;;;;;;;1.37;95.82;103768.00;5017362;28;20469;-66
2023/01/24 06:17:50;;;;;;;30.50;14.10;;;;;;;1.38;96.48;103768.16;5028025;28;20035;-66
2023/01/24 06:20:16;;;;;;;31.35;14.05;;;;;;;1.37;95.71;103775.72;5027161;28;20032;-66
2023/01/24 06:22:50;;;;;;;30.85;14.13;;;;;;;1.35;95.73;103772.09;5027699;28;20040;-66
2023/01/24 06:25:24;;;;;;;31.95;14.38;;;;;;;1.33;95.73;103776.13;5028668;28;20021;-66
2023/01/24 06:27:50;;;;;;;29.00;13.82;;;;;;;1.31;96.40;103764.78;5026450;28;20487;-66
2023/01/24 06:30:17;;;;;;;29.55;13.52;;;;;;;1.30;95.85;103770.66;5031851;28;20017;-66
2023/01/24 06:32:45;;;;;;;30.13;13.38;;;;;;;1.30;95.93;103783.50;5031375;28;20033;-66
2023/01/24 06:35:25;;;;;;;31.42;14.63;;;;;;;1.28;96.02;103785.00;5032459;28;20033;-66
2023/01/24 06:37:52;;;;;;;31.17;14.18;;;;;;;1.28;95.71;103785.00;5024889;28;20025;-66
2023/01/24 06:40:20;;;;;;;28.63;13.60;;;;;;;1.25;96.38;103785.56;5030512;28;20079;-66
2023/01/24 06:42:46;;;;;;;31.73;15.15;;;;;;;1.25;96.34;103789.81;5029337;28;20464;-66
2023/01/24 06:45:12;;;;;;;30.45;13.85;;;;;;;1.24;95.98;103785.41;5026019;28;20077;-66
2023/01/24 06:47:37;;;;;;;32.65;14.82;;;;;;;1.22;95.54;103798.09;5027015;28;20480;-66
2023/01/24 06:50:04;;;;;;;33.03;15.02;;;;;;;1.22;96.38;103790.38;5029751;28;20402;-66
2023/01/24 06:52:30;;;;;;;33.03;14.52;;;;;;;1.23;96.06;103793.84;5031888;28;20022;-66
2023/01/24 06:54:55;;;;;;;33.35;14.48;;;;;;;1.21;96.14;103784.31;5033311;28;20108;-66
2023/01/24 06:57:21;;;;;;;33.60;15.05;;;;;;;1.23;96.11;103786.16;5031314;28;20038;-66
2023/01/24 06:59:46;;;;;;;32.80;15.55;;;;;;;1.22;96.42;103790.38;5031726;28;20035;-66
2023/01/24 07:02:11;;;;;;;29.60;14.68;;;;;;;1.21;96.23;103784.31;5030103;28;20377;-66
2023/01/24 07:04:36;;;;;;;34.20;14.90;;;;;;;1.23;96.78;103794.75;5032089;28;20059;-65
2023/01/24 07:07:03;;;;;;;33.15;15.77;;;;;;;1.24;96.61;103790.53;5020485;28;20045;-66
2023/01/24 07:09:28;;;;;;;32.47;14.98;;;;;;;1.24;96.28;103793.13;5030648;28;20087;-66
2023/01/24 07:11:57;;;;;;;29.42;13.98;;;;;;;1.21;95.64;103798.81;5032765;28;20021;-66
2023/01/24 07:14:22;;;;;;;29.02;13.93;;;;;;;1.17;96.13;103797.59;5030621;28;20443;-66
2023/01/24 07:16:50;;;;;;;28.23;13.27;;;;;;;1.14;95.94;103804.03;5031145;28;20032;-66
2023/01/24 07:19:18;;;;;;;31.52;14.18;;;;;;;1.11;95.77;103807.16;5032592;28;20021;-66
2023/01/24 07:21:44;;;;;;;32.47;14.57;;;;;;;1.09;95.70;103812.91;5031331;28;20032;-66
2023/01/24 07:24:15;;;;;;;29.73;15.02;;;;;;;1.07;96.26;103812.69;5026298;28;20551;-66
2023/01/24 07:26:44;;;;;;;29.73;14.48;;;;;;;1.08;96.56;103818.78;5030946;28;20033;-66
2023/01/24 07:29:09;;;;;;;31.63;14.38;;;;;;;1.04;96.45;103821.00;5031692;28;20030;-66
2023/01/24 07:31:35;;;;;;;34.85;15.15;;;;;;;1.05;96.13;103821.91;5031227;28;20083;-66
2023/01/24 07:34:00;;;;;;;29.80;14.05;;;;;;;1.04;96.58;103822.63;5032478;28;20037;-66
2023/01/24 07:36:25;;;;;;;33.55;15.52;;;;;;;1.04;96.43;103825.22;5026378;28;20476;-66
2023/01/24 07:38:55;;;;;;;33.53;14.50;;;;;;;1.03;95.92;103824.31;5030174;28;20040;-66
2023/01/24 07:41:20;;;;;;;34.65;14.30;;;;;;;1.04;96.86;103830.34;5030208;28;20039;-66
2023/01/24 07:43:45;;;;;;;35.22;15.52;;;;;;;1.03;96.13;103833.69;5028796;28;20041;-66
2023/01/24 07:46:11;;;;;;;30.73;13.32;;;;;;;1.00;95.97;103838.44;5030654;28;20030;-66
2023/01/24 07:48:36;;;;;;;31.27;14.57;;;;;;;0.97;96.75;103831.34;5027630;28;20143;-66
2023/01/24 07:51:02;;;;;;;29.55;13.93;;;;;;;0.97;96.55;103840.69;5029141;28;20040;-66
2023/01/24 07:53:27;;;;;;;28.83;13.60;;;;;;;0.96;96.32;103844.91;5030964;28;20112;-66
2023/01/24 07:55:53;;;;;;;30.50;13.95;;;;;;;0.97;96.79;103835.53;5030579;28;20067;-66
2023/01/24 07:58:18;;;;;;;35.15;15.82;;;;;;;0.97;96.71;103844.19;5028968;28;20069;-66
2023/01/24 08:00:44;;;;;;;31.65;14.57;;;;;;;0.98;96.27;103848.53;5030334;28;20022;-66
2023/01/24 08:03:10;;;;;;;33.22;14.57;;;;;;;0.97;96.36;103853.50;5029953;28;20439;-66
2023/01/24 08:05:38;;;;;;;35.40;15.20;;;;;;;0.99;96.63;103854.63;5020233;28;20050;-66
2023/01/24 08:08:04;;;;;;;33.45;14.10;;;;;;;1.01;96.68;103853.13;5029130;28;20135;-66
2023/01/24 08:10:29;;;;;;;31.63;14.40;;;;;;;1.03;96.65;103859.34;5028421;28;20497;-66
2023/01/24 08:12:56;;;;;;;32.90;14.63;;;;;;;1.05;96.65;103842.44;5028083;28;20025;-66
2023/01/24 08:15:21;;;;;;;32.40;15.07;;;;;;;1.05;96.98;103850.16;5030957;28;20022;-66
2023/01/24 08:17:47;;;;;;;32.85;14.98;;;;;;;1.06;97.19;103858.75;5029663;28;20038;-66
2023/01/24 08:20:13;;;;;;;32.97;14.52;;;;;;;1.07;97.04;103858.03;5023750;28;20435;-65
2023/01/24 08:22:39;;;;;;;33.03;15.02;;;;;;;1.06;96.04;103851.97;5027276;28;20079;-66
2023/01/24 08:25:05;;;;;;;32.90;14.65;;;;;;;1.02;96.01;103853.28;5025404;28;20029;-66
2023/01/24 08:27:30;;;;;;;32.03;14.13;;;;;;;1.03;96.01;103861.91;5023324;28;20068;-66
2023/01/24 08:29:55;;;;;;;32.80;14.55;;;;;;;1.02;96.55;103857.53;5028712;28;20021;-66
2023/01/24 08:32:20;;;;;;;28.92;13.88;;;;;;;1.02;95.96;103852.38;5028174;28;20113;-66
2023/01/24 08:34:46;;;;;;;32.53;13.90;;;;;;;1.01;96.85;103859.19;5030412;28;20026;-66
2023/01/24 08:37:11;;;;;;;32.67;14.43;;;;;;;1.03;96.71;103859.34;5030076;28;20511;-66
2023/01/24 08:39:36;;;;;;;31.00;14.68;;;;;;;1.04;96.42;103864.66;5028717;28;20044;-66
2023/01/24 08:42:02;;;;;;;33.00;13.88;;;;;;;1.06;96.13;103867.41;5028957;28;20076;-66
2023/01/24 08:44:27;;;;;;;34.00;14.45;;;;;;;1.07;95.97;103868.28;5026509;28;20120;-66
2023/01/24 08:46:52;;;;;;;34.35;15.30;;;;;;;1.06;96.71;103871.59;5027197;28;20033;-66
2023/01/24 08:49:17;;;;;;;32.17;14.23;;;;;;;1.07;96.84;103879.47;5030043;28;20159;-66
2023/01/24 08:51:43;;;;;;;32.97;14.43;;;;;;;1.10;96.28;103876.34;5028728;28;20395;-66
2023/01/24 08:54:08;;;;;;;34.05;15.10;;;;;;;1.11;96.87;103876.50;5030043;28;20025;-66
2023/01/24 08:56:34;;;;;;;34.38;14.35;;;;;;;1.14;97.25;103875.94;5026581;28;20106;-66
2023/01/24 08:58:59;;;;;;;30.27;14.05;;;;;;;1.14;96.96;103879.41;5026833;28;20036;-66
2023/01/24 09:01:26;;;;;;;33.15;14.88;;;;;;;1.14;96.17;103879.41;5028056;28;20033;-66
2023/01/24 09:03:54;;;;;;;33.72;14.85;;;;;;;1.12;96.37;103888.59;5026809;28;20116;-66
2023/01/24 09:06:20;;;;;;;33.72;14.77;;;;;;;1.13;96.65;103890.44;5024258;28;20427;-67
2023/01/24 09:08:46;;;;;;;31.67;14.73;;;;;;;1.13;96.65;103886.94;5027523;28;20479;-66
2023/01/24 09:11:11;;;;;;;33.22;14.73;;;;;;;1.15;96.08;103885.47;5027684;28;20060;-66
2023/01/24 09:13:36;;;;;;;33.67;14.30;;;;;;;1.17;97.04;103886.53;5029648;28;20511;-66
2023/01/24 09:16:02;;;;;;;36.25;15.48;;;;;;;1.18;96.51;103890.94;5029500;28;20037;-66
2023/01/24 09:18:27;;;;;;;33.58;15.43;;;;;;;1.18;96.50;103891.84;5026663;28;20399;-66
2023/01/24 09:20:52;;;;;;;33.35;15.05;;;;;;;1.18;96.46;103885.81;5015990;28;20030;-66
2023/01/24 09:23:18;;;;;;;31.17;14.20;;;;;;;1.17;96.70;103884.91;5019047;28;20025;-66
2023/01/24 09:25:52;;;;;;;30.80;14.00;;;;;;;1.17;96.20;103889.09;5025023;28;20396;-66
2023/01/24 09:28:20;;;;;;;32.47;13.90;;;;;;;1.16;95.50;103882.13;5025630;28;20056;-66
2023/01/24 09:30:47;;;;;;;31.10;13.88;;;;;;;1.13;95.60;103889.50;5024525;28;20104;-66
2023/01/24 09:33:12;;;;;;;28.95;14.07;;;;;;;1.11;95.25;103891.91;5019080;28;20033;-66
2023/01/24 09:35:38;;;;;;;34.10;14.35;;;;;;;1.12;94.81;103891.19;5019129;28;20025;-66
2023/01/24 09:38:03;;;;;;;30.95;13.48;;;;;;;1.11;95.10;103899.63;5021396;28;20018;-66
2023/01/24 09:40:53;;;;;;;33.85;14.10;;;;;;;1.10;94.82;103900.38;5022335;28;20022;-66
2023/01/24 09:43:43;;;;;;;30.27;13.13;;;;;;;1.11;95.14;103894.47;5010740;28;20057;-66
2023/01/24 09:46:30;;;;;;;32.13;13.55;;;;;;;1.12;95.77;103900.53;5027717;28;20302;-66
2023/01/24 09:49:10;;;;;;;28.85;12.82;;;;;;;1.15;94.94;103895.75;5015182;28;20025;-66
2023/01/24 09:51:43;;;;;;;28.67;13.85;;;;;;;1.14;94.84;103893.91;5022329;28;20029;-66
2023/01/24 09:54:17;;;;;;;28.60;13.75;;;;;;;1.15;94.78;103895.75;5024083;28;20025;-66
2023/01/24 09:56:45;;;;;;;30.30;13.57;;;;;;;1.15;94.55;103906.91;5024007;28;20524;-66
2023/01/24 09:59:41;;;;;;;28.88;12.77;;;;;;;1.14;94.59;103902.53;5030405;28;20112;-66
2023/01/24 10:02:20;;;;;;;27.42;11.98;;;;;;;1.16;94.63;103913.91;5026725;28;20029;-66
2023/01/24 10:04:48;;;;;;;27.80;12.27;;;;;;;1.15;93.27;103912.06;5033096;28;20069;-66
2023/01/24 10:07:40;;;;;;;31.25;13.70;;;;;;;1.14;93.57;103911.88;5031281;28;20549;-66
2023/01/24 10:10:12;;;;;;;28.27;12.43;;;;;;;1.14;94.27;103906.75;5027148;28;20424;-67
2023/01/24 10:12:59;;;;;;;27.83;13.60;;;;;;;1.14;94.06;103907.66;5028508;28;20025;-66
2023/01/24 10:15:41;;;;;;;28.52;12.00;;;;;;;1.15;94.26;103906.91;5027929;28;20028;-66
2023/01/24 10:18:28;;;;;;;27.92;12.70;;;;;;;1.17;94.16;103913.16;5027749;28;20541;-67
2023/01/24 10:21:17;;;;;;;27.08;12.63;;;;;;;1.21;94.24;103910.16;5029854;28;20083;-66
2023/01/24 10:23:47;;;;;;;;;;;;;;;1.26;94.52;103909.75;5032364;28;20033;-66
2023/01/24 10:26:19;;;;;;;29.20;11.70;;;;;;;1.26;94.47;103914.91;5030249;28;20391;-67
2023/01/24 10:29:09;;;;;;;32.03;13.07;;;;;;;1.27;93.86;103915.06;5028986;28;20087;-66
2023/01/24 10:31:40;;;;;;;28.23;12.75;;;;;;;1.25;93.42;103910.53;5030910;28;20088;-66
2023/01/24 10:34:18;;;;;;;29.10;12.60;;;;;;;1.25;94.09;103915.66;5027828;28;20083;-66
2023/01/24 10:36:58;;;;;;;29.37;13.07;;;;;;;1.26;94.32;103908.13;5026556;28;20021;-66
2023/01/24 10:39:24;;;;;;;28.90;12.85;;;;;;;1.27;93.98;103909.03;5032148;28;20052;-66
2023/01/24 10:41:49;;;;;;;24.92;12.25;;;;;;;1.28;94.70;103904.06;5030693;28;20395;-66
2023/01/24 10:44:15;;;;;;;28.17;12.38;;;;;;;1.31;94.71;103904.41;5030855;28;20025;-66
2023/01/24 10:46:57;;;;;;;26.92;11.93;;;;;;;1.34;94.76;103904.72;5029591;28;20156;-66
2023/01/24 10:49:27;;;;;;;28.70;12.13;;;;;;;1.34;93.98;103903.84;5032101;28;20052;-66
2023/01/24 10:52:13;;;;;;;26.00;11.25;;;;;;;1.35;94.24;103908.25;5031361;28;20400;-66
2023/01/24 10:55:21;;;;;;;24.48;11.52;;;;;;;1.34;93.67;103904.72;5030412;28;20079;-66
2023/01/24 10:57:53;;;;;;;26.33;11.93;;;;;;;1.36;93.55;103905.84;5029526;28;20034;-66
2023/01/24 11:00:27;;;;;;;25.20;11.38;;;;;;;1.38;92.98;103906.00;5026846;28;20025;-66
2023/01/24 11:02:58;;;;;;;23.45;10.88;;;;;;;1.39;94.07;103903.59;5032275;28;20051;-66
2023/01/24 11:05:34;;;;;;;25.83;11.48;;;;;;;1.41;93.18;103905.44;5030767;28;20491;-66
2023/01/24 11:08:00;;;;;;;26.85;11.85;;;;;;;1.41;93.36;103890.91;5028256;28;20033;-66
2023/01/24 11:10:37;;;;;;;24.65;11.52;;;;;;;1.41;93.58;103896.06;5032831;28;20021;-66
2023/01/24 11:13:24;;;;;;;29.60;12.77;;;;;;;1.44;93.59;103891.25;5018989;28;20026;-66
2023/01/24 11:15:53;;;;;;;26.63;11.93;;;;;;;1.45;93.62;103887.94;5029983;28;20014;-66
2023/01/24 11:18:25;;;;;;;24.77;11.73;;;;;;;1.47;93.66;103891.59;5032413;28;20123;-66
2023/01/24 11:21:15;;;;;;;25.98;12.23;;;;;;;1.48;93.01;103892.53;5030323;28;20067;-66
2023/01/24 11:23:42;;;;;;;25.88;11.95;;;;;;;1.46;93.53;103884.59;5027752;28;20028;-66
2023/01/24 11:26:27;;;;;;;24.08;11.32;;;;;;;1.51;93.40;103880.91;5026060;28;20038;-66
2023/01/24 11:28:58;;;;;;;25.02;11.02;;;;;;;1.52;92.91;103885.31;5029063;28;20496;-66
2023/01/24 11:31:31;;;;;;;25.17;11.07;;;;;;;1.55;93.11;103871.84;5028869;28;20045;-67
2023/01/24 11:34:34;;;;;;;24.80;11.40;;;;;;;1.55;92.75;103870.22;5030130;28;20392;-66
2023/01/24 11:37:21;;;;;;;23.98;11.20;;;;;;;1.56;93.36;103872.06;5030150;28;20033;-66
2023/01/24 11:39:48;;;;;;;23.23;11.70;;;;;;;1.56;92.54;103864.34;5029842;28;20087;-66
2023/01/24 11:42:37;;;;;;;28.38;11.85;;;;;;;1.54;93.18;103870.06;5030379;28;20030;-66
2023/01/24 11:45:11;;;;;;;23.92;11.45;;;;;;;1.54;93.05;103864.91;5032393;28;20113;-66
2023/01/24 11:47:50;;;;;;;26.98;11.85;;;;;;;1.55;92.50;103864.16;5032610;28;20028;-66
2023/01/24 11:50:36;;;;;;;;;;;;;;;1.60;93.99;103850.16;5032484;28;20107;-66
2023/01/24 11:53:39;;;;;;;24.70;11.57;;;;;;;1.59;92.47;103857.69;5031188;28;19967;-66
2023/01/24 11:56:24;;;;;;;25.55;11.35;;;;;;;1.59;92.50;103855.13;5031132;28;20021;-66
2023/01/24 11:59:03;;;;;;;23.85;11.70;;;;;;;1.58;92.27;103850.72;5023564;28;20022;-66
2023/01/24 12:01:48;;;;;;;29.52;13.10;;;;;;;1.60;93.35;103856.97;5032064;28;20032;-66
2023/01/24 12:04:45;;;;;;;26.85;12.23;;;;;;;1.64;93.06;103854.00;5031689;28;20024;-66